createdAt,value
2023-01-22T00:01:09.028Z,14.03
2023-01-22T00:03:36.534Z,13.36
2023-01-22T00:06:03.172Z,13.68
2023-01-22T00:08:29.814Z,13.31
2023-01-22T00:10:56.491Z,13.23
2023-01-22T00:13:23.911Z,13.10
2023-01-22T00:15:50.599Z,13.42
2023-01-22T00:18:17.421Z,13.46
2023-01-22T00:20:50.963Z,12.66
2023-01-22T00:23:17.654Z,13.22
2023-01-22T00:25:44.509Z,13.17
2023-01-22T00:28:11.616Z,13.61
2023-01-22T00:30:38.347Z,13.18
2023-01-22T00:33:05.183Z,13.23
2023-01-22T00:35:32.153Z,13.00
2023-01-22T00:37:58.818Z,13.11
2023-01-22T00:40:25.441Z,13.06
2023-01-22T00:42:52.047Z,13.10
2023-01-22T00:45:18.681Z,13.03
2023-01-22T00:47:45.331Z,12.77
2023-01-22T00:50:12.035Z,12.95
2023-01-22T00:52:38.765Z,13.16
2023-01-22T00:55:06.002Z,12.47
2023-01-22T00:57:32.812Z,12.91
2023-01-22T00:59:59.452Z,12.85
2023-01-22T01:02:26.112Z,12.21
2023-01-22T01:04:52.819Z,13.62
2023-01-22T01:07:19.629Z,12.86
2023-01-22T01:09:46.329Z,12.48
2023-01-22T01:12:12.987Z,12.96
2023-01-22T01:14:39.602Z,12.51
2023-01-22T01:17:06.207Z,12.42
2023-01-22T01:19:32.869Z,11.92
2023-01-22T01:21:59.535Z,11.83
2023-01-22T01:24:26.236Z,11.71
2023-01-22T01:26:52.832Z,12.47
2023-01-22T01:29:19.763Z,12.59
2023-01-22T01:31:46.462Z,12.43
2023-01-22T01:34:13.390Z,12.11
2023-01-22T01:36:48.747Z,12.38
2023-01-22T01:39:16.229Z,12.11
2023-01-22T01:41:42.931Z,12.43
2023-01-22T01:44:15.225Z,12.24
2023-01-22T01:47:02.030Z,11.80
2023-01-22T01:49:31.717Z,11.94
2023-01-22T01:52:01.066Z,11.85
2023-01-22T01:54:27.876Z,11.97
2023-01-22T01:57:11.293Z,12.04
2023-01-22T01:59:37.928Z,11.98
2023-01-22T02:02:05.516Z,12.15
2023-01-22T02:04:32.195Z,11.47
2023-01-22T02:06:58.838Z,11.95
2023-01-22T02:09:25.506Z,11.79
2023-01-22T02:11:52.176Z,11.41
2023-01-22T02:14:21.677Z,11.47
2023-01-22T02:16:48.345Z,11.32
2023-01-22T02:19:14.991Z,11.53
2023-01-22T02:21:42.895Z,11.93
2023-01-22T02:24:11.739Z,11.23
2023-01-22T02:26:38.567Z,11.76
2023-01-22T02:29:05.864Z,11.43
2023-01-22T02:31:32.504Z,11.32
2023-01-22T02:33:59.145Z,12.08
2023-01-22T02:36:25.896Z,11.59
2023-01-22T02:38:52.545Z,11.24
2023-01-22T02:41:19.303Z,11.81
2023-01-22T02:43:46.004Z,11.91
2023-01-22T02:46:12.672Z,11.42
2023-01-22T02:48:39.327Z,11.63
2023-01-22T02:51:06.159Z,11.31
2023-01-22T02:53:32.835Z,11.31
2023-01-22T02:55:59.616Z,11.33
2023-01-22T02:58:26.222Z,11.20
2023-01-22T03:00:52.846Z,10.52
2023-01-22T03:03:19.496Z,10.78
2023-01-22T03:05:50.177Z,10.39
2023-01-22T03:08:17.008Z,10.84
2023-01-22T03:10:43.862Z,11.10
2023-01-22T03:13:10.479Z,11.13
2023-01-22T03:15:39.872Z,10.37
2023-01-22T03:18:06.528Z,10.37
2023-01-22T03:20:36.409Z,10.30
2023-01-22T03:23:03.042Z,10.20
2023-01-22T03:25:29.688Z,9.72
2023-01-22T03:27:56.353Z,10.01
2023-01-22T03:30:23.000Z,9.86
2023-01-22T03:32:49.619Z,9.99
2023-01-22T03:35:16.380Z,9.89
2023-01-22T03:37:43.032Z,9.37
2023-01-22T03:40:10.426Z,9.71
2023-01-22T03:42:37.090Z,9.70
2023-01-22T03:45:03.861Z,9.28
2023-01-22T03:47:30.654Z,9.25
2023-01-22T03:49:57.378Z,9.40
2023-01-22T03:52:23.992Z,9.80
2023-01-22T03:54:50.653Z,9.43
2023-01-22T03:57:17.303Z,9.74
2023-01-22T03:59:43.954Z,11.81
2023-01-22T04:02:10.610Z,10.29
2023-01-22T04:04:37.425Z,10.04
2023-01-22T04:07:04.040Z,10.03
2023-01-22T04:09:30.666Z,10.02
2023-01-22T04:11:57.275Z,10.49
2023-01-22T04:14:24.204Z,9.99
2023-01-22T04:16:50.852Z,9.99
2023-01-22T04:19:17.460Z,10.22
2023-01-22T04:21:44.138Z,10.28
2023-01-22T04:24:10.972Z,10.60
2023-01-22T04:26:37.644Z,10.47
2023-01-22T04:29:04.272Z,10.46
2023-01-22T04:31:30.967Z,10.57
2023-01-22T04:33:57.605Z,10.72
2023-01-22T04:36:24.251Z,10.58
2023-01-22T04:38:50.857Z,10.78
2023-01-22T04:41:17.569Z,10.50
2023-01-22T04:43:44.185Z,11.21
2023-01-22T04:46:10.942Z,11.48
2023-01-22T04:48:37.602Z,11.65
2023-01-22T04:51:04.281Z,11.36
2023-01-22T04:53:30.923Z,11.47
2023-01-22T04:55:57.554Z,11.23
2023-01-22T04:58:24.175Z,11.18
2023-01-22T05:00:50.773Z,11.81
2023-01-22T05:03:17.397Z,11.46
2023-01-22T05:05:44.048Z,11.88
2023-01-22T05:08:10.707Z,11.73
2023-01-22T05:10:37.328Z,11.78
2023-01-22T05:13:04.999Z,11.97
2023-01-22T05:15:31.742Z,11.99
2023-01-22T05:17:58.372Z,11.81
2023-01-22T05:20:25.004Z,12.19
2023-01-22T05:22:51.639Z,11.58
2023-01-22T05:25:18.973Z,12.14
2023-01-22T05:27:45.627Z,12.10
2023-01-22T05:30:12.470Z,11.94
2023-01-22T05:32:39.202Z,12.17
2023-01-22T05:35:06.191Z,11.78
2023-01-22T05:37:32.816Z,11.65
2023-01-22T05:39:59.447Z,11.69
2023-01-22T05:42:26.124Z,11.79
2023-01-22T05:44:53.041Z,11.47
2023-01-22T05:47:19.708Z,11.25
2023-01-22T05:49:46.341Z,11.45
2023-01-22T05:52:12.971Z,11.84
2023-01-22T05:54:39.628Z,11.99
2023-01-22T05:57:06.445Z,12.01
2023-01-22T05:59:33.174Z,12.11
2023-01-22T06:01:59.950Z,12.61
2023-01-22T06:04:26.665Z,12.56
2023-01-22T06:06:53.322Z,12.41
2023-01-22T06:09:19.982Z,12.26
2023-01-22T06:11:46.732Z,12.26
2023-01-22T06:14:13.413Z,12.60
2023-01-22T06:16:40.122Z,12.63
2023-01-22T06:19:06.766Z,12.08
2023-01-22T06:21:33.439Z,12.26
2023-01-22T06:24:00.121Z,12.44
2023-01-22T06:26:26.732Z,12.24
2023-01-22T06:28:53.378Z,12.28
2023-01-22T06:31:20.082Z,12.10
2023-01-22T06:33:46.770Z,12.14
2023-01-22T06:36:13.490Z,12.78
2023-01-22T06:38:40.169Z,12.57
2023-01-22T06:41:06.824Z,12.45
2023-01-22T06:43:33.423Z,12.07
2023-01-22T06:46:00.109Z,11.73
2023-01-22T06:48:26.955Z,11.96
2023-01-22T06:50:57.381Z,11.93
2023-01-22T06:53:24.047Z,11.65
2023-01-22T06:55:50.871Z,12.25
2023-01-22T06:58:17.603Z,11.64
2023-01-22T07:00:44.265Z,11.48
2023-01-22T07:03:11.317Z,12.05
2023-01-22T07:05:37.962Z,11.99
2023-01-22T07:08:05.087Z,11.64
2023-01-22T07:10:31.715Z,11.89
2023-01-22T07:12:58.465Z,11.93
2023-01-22T07:15:25.788Z,11.74
2023-01-22T07:17:52.926Z,12.05
2023-01-22T07:20:22.496Z,11.91
2023-01-22T07:22:49.111Z,12.02
2023-01-22T07:25:15.783Z,12.72
2023-01-22T07:27:42.488Z,12.83
2023-01-22T07:30:09.700Z,12.58
2023-01-22T07:32:36.463Z,12.84
2023-01-22T07:35:03.263Z,12.90
2023-01-22T07:37:29.955Z,12.56
2023-01-22T07:39:56.667Z,12.85
2023-01-22T07:42:23.333Z,12.43
2023-01-22T07:44:49.911Z,12.57
2023-01-22T07:47:16.685Z,12.32
2023-01-22T07:49:43.357Z,12.58
2023-01-22T07:52:10.035Z,12.36
2023-01-22T07:54:36.786Z,12.83
2023-01-22T07:57:03.693Z,12.68
2023-01-22T07:59:30.329Z,12.75
2023-01-22T08:01:57.034Z,12.70
2023-01-22T08:04:24.390Z,13.03
2023-01-22T08:06:51.377Z,13.11
2023-01-22T08:09:18.065Z,12.81
2023-01-22T08:11:44.728Z,13.30
2023-01-22T08:14:11.484Z,12.71
2023-01-22T08:16:38.180Z,12.85
2023-01-22T08:19:04.879Z,12.72
2023-01-22T08:21:32.620Z,12.85
2023-01-22T08:24:00.678Z,12.78
2023-01-22T08:26:27.307Z,12.69
2023-01-22T08:28:54.269Z,12.43
2023-01-22T08:31:27.948Z,12.22
2023-01-22T08:33:55.241Z,12.74
2023-01-22T08:36:21.899Z,12.11
2023-01-22T08:38:48.500Z,12.49
2023-01-22T08:41:15.113Z,12.44
2023-01-22T08:43:41.986Z,12.80
2023-01-22T08:46:08.675Z,12.85
2023-01-22T08:48:35.382Z,13.31
2023-01-22T08:51:02.119Z,12.27
2023-01-22T08:53:28.770Z,13.28
2023-01-22T08:55:55.504Z,12.53
2023-01-22T08:58:22.381Z,12.76
2023-01-22T09:00:49.109Z,13.20
2023-01-22T09:03:15.790Z,13.37
2023-01-22T09:05:42.455Z,13.88
2023-01-22T09:08:09.076Z,13.45
2023-01-22T09:10:35.690Z,12.83
2023-01-22T09:13:02.393Z,13.13
2023-01-22T09:15:29.180Z,13.57
2023-01-22T09:17:55.875Z,13.87
2023-01-22T09:20:22.586Z,13.59
2023-01-22T09:22:49.288Z,12.94
2023-01-22T09:25:16.041Z,13.14
2023-01-22T09:27:42.703Z,13.22
2023-01-22T09:30:09.943Z,13.11
2023-01-22T09:32:37.849Z,13.15
2023-01-22T09:35:04.693Z,13.29
2023-01-22T09:37:31.317Z,12.98
2023-01-22T09:39:57.967Z,13.06
2023-01-22T09:42:28.016Z,13.17
2023-01-22T09:44:56.709Z,12.95
2023-01-22T09:47:44.908Z,12.59
2023-01-22T09:50:16.976Z,12.54
2023-01-22T09:52:43.758Z,12.84
2023-01-22T09:55:14.404Z,12.90
2023-01-22T09:57:46.822Z,13.06
2023-01-22T10:00:21.763Z,12.30
2023-01-22T10:02:55.411Z,12.56
2023-01-22T10:05:48.339Z,12.59
2023-01-22T10:08:20.370Z,12.03
2023-01-22T10:10:47.419Z,12.05
2023-01-22T10:13:21.612Z,11.99
2023-01-22T10:15:50.322Z,12.09
2023-01-22T10:18:46.134Z,11.40
2023-01-22T10:21:19.130Z,11.89
2023-01-22T10:23:45.758Z,11.95
2023-01-22T10:26:19.959Z,12.07
2023-01-22T10:28:51.588Z,12.42
2023-01-22T10:31:24.046Z,12.14
2023-01-22T10:34:20.209Z,12.13
2023-01-22T10:36:51.411Z,11.42
2023-01-22T10:39:18.381Z,11.23
2023-01-22T10:41:45.897Z,11.74
2023-01-22T10:44:23.391Z,12.17
2023-01-22T10:46:50.665Z,11.59
2023-01-22T10:49:24.823Z,11.24
2023-01-22T10:51:59.167Z,10.96
2023-01-22T10:54:32.815Z,10.68
2023-01-22T10:57:06.224Z,10.92
2023-01-22T10:59:32.925Z,11.50
2023-01-22T11:02:10.739Z,11.55
2023-01-22T11:04:37.388Z,11.69
2023-01-22T11:07:09.100Z,11.10
2023-01-22T11:09:44.382Z,10.90
2023-01-22T11:12:32.617Z,11.14
2023-01-22T11:15:20.581Z,10.82
2023-01-22T11:17:50.332Z,10.82
2023-01-22T11:20:49.961Z,10.45
2023-01-22T11:23:36.787Z,10.72
2023-01-22T11:26:26.543Z,11.19
2023-01-22T11:29:22.087Z,10.15
2023-01-22T11:32:05.639Z,10.93
2023-01-22T11:34:48.233Z,10.21
2023-01-22T11:37:17.158Z,10.30
2023-01-22T11:40:02.515Z,10.06
2023-01-22T11:43:08.303Z,10.60
2023-01-22T11:45:50.820Z,10.76
2023-01-22T11:48:40.788Z,10.84
2023-01-22T11:51:17.449Z,10.06
2023-01-22T11:54:02.840Z,9.91
2023-01-22T11:56:38.200Z,9.67
2023-01-22T11:59:09.307Z,10.28
2023-01-22T12:01:55.394Z,9.98
2023-01-22T12:04:50.885Z,10.05
2023-01-22T12:07:39.024Z,9.86
2023-01-22T12:10:27.329Z,10.05
2023-01-22T12:12:53.867Z,9.42
2023-01-22T12:15:39.994Z,9.62
2023-01-22T12:18:25.309Z,9.21
2023-01-22T12:21:40.645Z,8.83
2023-01-22T12:24:21.618Z,9.09
2023-01-22T12:27:11.648Z,9.00
2023-01-22T12:29:45.344Z,8.14
2023-01-22T12:32:12.547Z,8.38
2023-01-22T12:34:53.265Z,8.46
2023-01-22T12:37:25.512Z,8.74
2023-01-22T12:39:58.045Z,8.72
2023-01-22T12:42:51.153Z,8.57
2023-01-22T12:45:45.527Z,8.55
2023-01-22T12:48:21.159Z,8.55
2023-01-22T12:50:49.489Z,8.40
2023-01-22T12:53:30.015Z,8.65
2023-01-22T12:56:03.722Z,8.76
2023-01-22T12:58:32.683Z,8.36
2023-01-22T13:01:11.625Z,9.01
2023-01-22T13:03:39.344Z,9.09
2023-01-22T13:06:20.192Z,8.75
2023-01-22T13:08:46.927Z,9.20
2023-01-22T13:11:26.139Z,8.64
2023-01-22T13:13:56.732Z,8.23
2023-01-22T13:16:34.241Z,8.27
2023-01-22T13:19:00.964Z,8.54
2023-01-22T13:21:32.605Z,8.67
2023-01-22T13:24:04.410Z,8.04
2023-01-22T13:26:33.350Z,8.59
2023-01-22T13:29:27.441Z,8.74
2023-01-22T13:32:01.859Z,8.34
2023-01-22T13:34:28.614Z,8.97
2023-01-22T13:36:55.371Z,8.66
2023-01-22T13:39:28.377Z,8.99
2023-01-22T13:41:56.721Z,8.87
2023-01-22T13:44:25.808Z,8.77
2023-01-22T13:46:52.513Z,9.10
2023-01-22T13:49:23.691Z,8.83
2023-01-22T13:51:50.527Z,8.83
2023-01-22T13:54:26.911Z,9.03
2023-01-22T13:56:53.565Z,8.92
2023-01-22T13:59:22.933Z,9.12
2023-01-22T14:01:49.927Z,8.84
2023-01-22T14:04:44.800Z,8.61
2023-01-22T14:07:11.551Z,8.82
2023-01-22T14:09:38.704Z,8.66
2023-01-22T14:12:25.326Z,8.96
2023-01-22T14:14:52.224Z,8.61
2023-01-22T14:17:32.496Z,8.83
2023-01-22T14:19:59.170Z,8.61
2023-01-22T14:22:25.789Z,8.39
2023-01-22T14:24:52.512Z,8.62
2023-01-22T14:27:23.216Z,8.40
2023-01-22T14:29:50.294Z,8.57
2023-01-22T14:32:17.006Z,8.32
2023-01-22T14:34:43.711Z,8.53
2023-01-22T14:37:14.022Z,8.48
2023-01-22T14:39:41.209Z,8.13
2023-01-22T14:42:07.808Z,8.58
2023-01-22T14:44:35.059Z,8.41
2023-01-22T14:47:01.724Z,8.68
2023-01-22T14:49:28.785Z,8.33
2023-01-22T14:51:55.474Z,8.34
2023-01-22T14:54:22.108Z,7.89
2023-01-22T14:56:48.767Z,7.91
2023-01-22T14:59:15.388Z,7.91
2023-01-22T15:01:42.041Z,7.91
2023-01-22T15:04:08.630Z,7.69
2023-01-22T15:06:35.247Z,7.73
2023-01-22T15:09:01.949Z,7.58
2023-01-22T15:11:28.537Z,7.90
2023-01-22T15:13:55.194Z,7.38
2023-01-22T15:16:21.886Z,7.74
2023-01-22T15:18:48.628Z,7.39
2023-01-22T15:21:15.362Z,7.48
2023-01-22T15:23:42.085Z,7.70
2023-01-22T15:26:19.814Z,7.45
2023-01-22T15:28:46.448Z,7.55
2023-01-22T15:31:13.141Z,7.92
2023-01-22T15:33:39.820Z,7.64
2023-01-22T15:36:06.973Z,7.97
2023-01-22T15:38:33.643Z,8.03
2023-01-22T15:41:17.699Z,8.16
2023-01-22T15:43:44.328Z,8.43
2023-01-22T15:46:10.990Z,8.42
2023-01-22T15:48:38.218Z,8.59
2023-01-22T15:51:11.453Z,8.59
2023-01-22T15:53:38.223Z,8.99
2023-01-22T15:56:05.081Z,9.04
2023-01-22T15:58:32.387Z,8.53
2023-01-22T16:00:59.562Z,8.74
2023-01-22T16:03:26.216Z,8.59
2023-01-22T16:05:52.888Z,9.13
2023-01-22T16:08:21.032Z,9.50
2023-01-22T16:10:47.797Z,9.37
2023-01-22T16:13:14.410Z,10.20
2023-01-22T16:15:41.088Z,10.04
2023-01-22T16:18:07.812Z,10.63
2023-01-22T16:20:36.848Z,10.75
2023-01-22T16:23:03.500Z,11.24
2023-01-22T16:25:30.290Z,11.03
2023-01-22T16:27:57.022Z,11.16
2023-01-22T16:30:23.654Z,10.88
2023-01-22T16:32:50.308Z,10.61
2023-01-22T16:35:17.029Z,10.59
2023-01-22T16:37:44.472Z,10.64
2023-01-22T16:40:11.947Z,10.83
2023-01-22T16:42:38.655Z,10.47
2023-01-22T16:45:05.634Z,10.80
2023-01-22T16:47:32.254Z,10.48
2023-01-22T16:49:58.871Z,10.50
2023-01-22T16:52:25.502Z,10.76
2023-01-22T16:54:52.144Z,10.56
2023-01-22T16:57:18.893Z,10.51
2023-01-22T16:59:45.522Z,10.75
2023-01-22T17:02:14.030Z,10.81
2023-01-22T17:04:40.719Z,10.85
2023-01-22T17:07:07.385Z,11.24
2023-01-22T17:09:34.152Z,11.35
2023-01-22T17:12:02.050Z,11.00
2023-01-22T17:14:30.010Z,10.81
2023-01-22T17:16:57.200Z,10.84
2023-01-22T17:19:23.848Z,11.37
2023-01-22T17:21:51.529Z,11.60
2023-01-22T17:24:18.179Z,11.13
2023-01-22T17:26:46.525Z,11.61
2023-01-22T17:29:17.137Z,11.86
2023-01-22T17:31:52.263Z,11.18
2023-01-22T17:34:19.012Z,11.29
2023-01-22T17:36:45.691Z,11.01
2023-01-22T17:39:14.256Z,11.36
2023-01-22T17:41:40.951Z,10.81
2023-01-22T17:44:07.598Z,10.97
2023-01-22T17:46:34.437Z,11.11
2023-01-22T17:49:01.240Z,10.97
2023-01-22T17:51:28.610Z,11.48
2023-01-22T17:53:56.059Z,11.44
2023-01-22T17:56:26.876Z,11.16
2023-01-22T17:58:58.936Z,11.03
2023-01-22T18:01:28.254Z,11.16
2023-01-22T18:04:01.789Z,10.89
2023-01-22T18:06:29.785Z,11.83
2023-01-22T18:08:59.873Z,11.56
2023-01-22T18:11:27.363Z,11.78
2023-01-22T18:14:01.732Z,11.64
2023-01-22T18:16:29.927Z,11.81
2023-01-22T18:18:57.193Z,11.67
2023-01-22T18:21:27.718Z,11.25
2023-01-22T18:23:54.960Z,11.43
2023-01-22T18:26:22.577Z,11.25
2023-01-22T18:28:56.657Z,11.30
2023-01-22T18:31:24.324Z,10.77
2023-01-22T18:33:53.582Z,11.00
2023-01-22T18:36:25.602Z,10.54
2023-01-22T18:38:53.611Z,10.35
2023-01-22T18:41:22.034Z,10.49
2023-01-22T18:43:49.179Z,10.31
2023-01-22T18:46:16.336Z,10.86
2023-01-22T18:48:43.051Z,10.81
2023-01-22T18:51:10.556Z,10.87
2023-01-22T18:53:37.421Z,10.90
2023-01-22T18:56:05.402Z,10.95
2023-01-22T18:58:32.199Z,10.72
2023-01-22T19:01:08.993Z,10.65
2023-01-22T19:03:35.828Z,10.63
2023-01-22T19:06:06.518Z,10.74
2023-01-22T19:08:33.426Z,10.43
2023-01-22T19:11:02.393Z,10.11
2023-01-22T19:13:29.323Z,10.27
2023-01-22T19:15:56.038Z,10.21
2023-01-22T19:18:22.804Z,9.99
2023-01-22T19:20:49.568Z,9.93
2023-01-22T19:23:20.776Z,10.16
2023-01-22T19:25:50.488Z,10.52
2023-01-22T19:28:17.168Z,10.50
2023-01-22T19:30:43.924Z,10.95
2023-01-22T19:33:10.606Z,11.03
2023-01-22T19:35:37.239Z,10.97
2023-01-22T19:38:03.924Z,10.46
2023-01-22T19:40:30.592Z,10.69
2023-01-22T19:42:57.196Z,10.57
2023-01-22T19:45:23.939Z,10.91
2023-01-22T19:47:50.581Z,10.64
2023-01-22T19:50:17.271Z,9.96
2023-01-22T19:52:43.910Z,10.66
2023-01-22T19:55:10.607Z,10.62
2023-01-22T19:57:37.279Z,10.60
2023-01-22T20:00:04.381Z,10.88
2023-01-22T20:02:31.066Z,10.98
2023-01-22T20:04:57.727Z,10.97
2023-01-22T20:07:24.343Z,11.25
2023-01-22T20:09:51.119Z,11.01
2023-01-22T20:12:17.811Z,10.98
2023-01-22T20:14:44.499Z,11.20
2023-01-22T20:17:11.119Z,10.91
2023-01-22T20:19:37.793Z,11.69
2023-01-22T20:22:04.482Z,11.95
2023-01-22T20:24:31.144Z,11.27
2023-01-22T20:26:57.829Z,11.39
2023-01-22T20:29:24.797Z,11.26
2023-01-22T20:31:52.348Z,11.11
2023-01-22T20:34:19.084Z,11.62
2023-01-22T20:36:45.774Z,11.17
2023-01-22T20:39:12.566Z,11.36
2023-01-22T20:41:39.226Z,11.20
2023-01-22T20:44:06.173Z,11.05
2023-01-22T20:46:32.814Z,11.27
2023-01-22T20:48:59.500Z,11.45
2023-01-22T20:51:27.735Z,11.04
2023-01-22T20:53:54.753Z,11.07
2023-01-22T20:56:23.490Z,11.19
2023-01-22T20:58:55.015Z,11.27
2023-01-22T21:01:21.624Z,11.37
2023-01-22T21:03:48.221Z,11.35
2023-01-22T21:06:16.420Z,11.12
2023-01-22T21:08:43.249Z,11.15
2023-01-22T21:11:12.054Z,10.88
2023-01-22T21:13:38.778Z,10.91
2023-01-22T21:16:09.487Z,11.21
2023-01-22T21:18:37.121Z,11.29
2023-01-22T21:21:04.753Z,10.96
2023-01-22T21:23:31.406Z,10.70
2023-01-22T21:26:03.576Z,10.82
2023-01-22T21:28:30.245Z,10.77
2023-01-22T21:30:56.905Z,10.67
2023-01-22T21:33:23.519Z,10.58
2023-01-22T21:35:50.210Z,10.14
2023-01-22T21:38:16.800Z,10.75
2023-01-22T21:40:43.636Z,10.64
2023-01-22T21:43:12.996Z,10.51
2023-01-22T21:45:41.387Z,10.43
2023-01-22T21:48:08.068Z,10.39
2023-01-22T21:50:38.229Z,10.16
2023-01-22T21:53:04.850Z,10.37
2023-01-22T21:55:31.507Z,10.60
2023-01-22T21:57:58.230Z,10.76
2023-01-22T22:00:24.834Z,10.84
2023-01-22T22:02:51.547Z,10.91
2023-01-22T22:05:18.544Z,11.04
2023-01-22T22:07:45.175Z,11.95
2023-01-22T22:10:11.870Z,11.56
2023-01-22T22:12:39.274Z,11.66
2023-01-22T22:15:06.526Z,11.93
2023-01-22T22:17:33.156Z,11.77
2023-01-22T22:19:59.791Z,11.58
2023-01-22T22:22:26.523Z,12.26
2023-01-22T22:24:53.210Z,12.74
2023-01-22T22:27:19.812Z,12.35
2023-01-22T22:29:46.488Z,12.86
2023-01-22T22:32:13.188Z,12.83
2023-01-22T22:34:40.053Z,12.42
2023-01-22T22:37:06.748Z,12.66
2023-01-22T22:39:33.401Z,13.72
2023-01-22T22:42:00.006Z,12.95
2023-01-22T22:44:26.696Z,13.17
2023-01-22T22:46:53.355Z,12.95
2023-01-22T22:49:21.093Z,13.39
2023-01-22T22:51:47.731Z,13.35
2023-01-22T22:54:16.012Z,14.05
2023-01-22T22:56:43.689Z,14.44
2023-01-22T22:59:10.677Z,14.03
2023-01-22T23:01:37.283Z,13.34
2023-01-22T23:04:07.125Z,14.25
2023-01-22T23:06:34.698Z,14.17
2023-01-22T23:09:01.404Z,14.71
2023-01-22T23:11:29.833Z,14.28
2023-01-22T23:13:56.547Z,14.22
2023-01-22T23:16:23.193Z,14.72
2023-01-22T23:18:50.897Z,14.55
2023-01-22T23:21:22.238Z,14.27
2023-01-22T23:23:49.469Z,14.27
2023-01-22T23:26:23.707Z,14.16
2023-01-22T23:28:50.381Z,14.44
2023-01-22T23:31:17.459Z,14.78
2023-01-22T23:33:44.226Z,14.86
2023-01-22T23:36:14.402Z,14.49
2023-01-22T23:38:41.064Z,14.74
2023-01-22T23:41:09.526Z,14.64
2023-01-22T23:43:36.136Z,15.09
2023-01-22T23:46:11.960Z,15.23
2023-01-22T23:48:38.675Z,14.99
2023-01-22T23:51:07.175Z,15.02
2023-01-22T23:53:40.262Z,15.16
2023-01-22T23:56:07.611Z,15.80
2023-01-22T23:58:35.344Z,15.39
